Time;durP1;ratioP1;P1;durP2;ratioP2;P2;SDS_P1;SDS_P2;PMS_P1;PMS_P2;Temp;Humidity;BMP_temperature;BMP_pressure;BME280_temperature;BME280_humidity;BME280_pressure;Samples;Min_cycle;Max_cycle;Signal;HPM_P1;HPM_P2
2022/06/09 00:00:51;;;;;;;22.08;4.13;;;20.30;83.80;;;;;;5023144;28;20432;-61
2022/06/09 00:03:20;;;;;;;12.57;3.85;;;20.30;83.70;;;;;;5022553;28;20027;-62
2022/06/09 00:05:45;;;;;;;21.23;4.10;;;20.30;83.70;;;;;;5021897;28;20029;-63
2022/06/09 00:08:11;;;;;;;14.85;3.63;;;20.20;83.90;;;;;;5020704;28;20041;-61
2022/06/09 00:10:41;;;;;;;15.65;3.50;;;20.20;83.90;;;;;;5038141;28;20040;-61
2022/06/09 00:13:07;;;;;;;13.20;3.78;;;20.20;84.10;;;;;;5020932;28;20077;-60
2022/06/09 00:15:32;;;;;;;11.90;3.95;;;20.10;84.10;;;;;;5040782;28;20496;-62
2022/06/09 00:17:58;;;;;;;17.58;3.38;;;20.10;84.90;;;;;;5024884;28;20434;-61
2022/06/09 00:20:24;;;;;;;15.80;3.70;;;20.10;84.90;;;;;;5024902;28;20554;-62
2022/06/09 00:22:49;;;;;;;13.48;3.53;;;20.10;84.40;;;;;;5024374;28;20436;-61
2022/06/09 00:25:15;;;;;;;13.82;3.35;;;20.10;84.40;;;;;;5043245;28;20512;-62
2022/06/09 00:27:40;;;;;;;11.07;3.25;;;20.10;84.50;;;;;;5024817;28;20025;-61
2022/06/09 00:30:07;;;;;;;10.27;3.55;;;20.00;84.50;;;;;;5011750;28;20033;-62
2022/06/09 00:32:32;;;;;;;12.35;3.08;;;20.00;84.60;;;;;;5025465;28;20032;-61
2022/06/09 00:34:58;;;;;;;12.30;3.00;;;20.00;84.60;;;;;;5025046;28;20041;-62
2022/06/09 00:37:23;;;;;;;12.75;3.28;;;20.00;84.70;;;;;;5042926;28;20250;-61
2022/06/09 00:39:49;;;;;;;9.73;2.92;;;20.00;84.70;;;;;;5025499;28;20196;-62
2022/06/09 00:42:14;;;;;;;9.45;3.40;;;20.00;84.60;;;;;;5026822;28;20086;-62
2022/06/09 00:44:40;;;;;;;11.65;3.35;;;20.00;84.50;;;;;;5026180;28;20490;-62
2022/06/09 00:47:11;;;;;;;8.75;2.97;;;20.00;84.50;;;;;;5021757;28;20120;-62
2022/06/09 00:49:45;;;;;;;12.30;2.70;;;20.00;84.60;;;;;;5023027;28;20693;-62
2022/06/09 00:52:11;;;;;;;9.77;2.72;;;20.00;84.60;;;;;;5044505;28;20036;-61
2022/06/09 00:54:39;;;;;;;7.30;2.40;;;19.90;84.70;;;;;;5007765;28;20431;-62
2022/06/09 00:57:14;;;;;;;8.55;2.50;;;19.90;84.70;;;;;;5024615;28;20098;-61
2022/06/09 00:59:41;;;;;;;6.45;2.08;;;19.80;84.80;;;;;;5024019;28;20031;-62
2022/06/09 01:02:07;;;;;;;8.18;2.42;;;19.80;85.50;;;;;;5043356;28;20024;-62
2022/06/09 01:04:33;;;;;;;8.25;2.80;;;19.80;84.90;;;;;;5026187;28;20037;-61
2022/06/09 01:07:03;;;;;;;7.15;2.97;;;19.80;84.90;;;;;;5026189;28;20449;-60
2022/06/09 01:09:29;;;;;;;6.32;2.55;;;19.80;84.90;;;;;;5023903;28;20036;-61
2022/06/09 01:11:55;;;;;;;7.07;2.50;;;19.80;85.00;;;;;;5025115;28;20162;-61
2022/06/09 01:14:23;;;;;;;7.93;2.47;;;19.80;85.00;;;;;;5025654;28;20033;-61
2022/06/09 01:17:04;;;;;;;9.48;2.50;;;19.80;85.00;;;;;;5024686;28;20098;-61
2022/06/09 01:19:32;;;;;;;5.82;2.40;;;19.70;85.00;;;;;;5041260;28;20033;-62
2022/06/09 01:22:16;;;;;;;5.35;2.28;;;19.70;85.00;;;;;;5042841;28;20086;-62
2022/06/09 01:24:52;;;;;;;7.90;2.40;;;19.70;85.00;;;;;;5043116;28;20059;-63
2022/06/09 01:27:32;;;;;;;7.18;2.45;;;19.70;85.00;;;;;;5022950;28;20630;-61
2022/06/09 01:30:09;;;;;;;6.53;2.30;;;19.70;84.90;;;;;;5006797;28;20032;-61
2022/06/09 01:32:40;;;;;;;11.50;2.33;;;19.70;84.90;;;;;;5043724;28;20056;-61
2022/06/09 01:35:14;;;;;;;5.93;2.53;;;19.70;84.90;;;;;;5025201;28;20046;-61
2022/06/09 01:37:42;;;;;;;8.88;2.28;;;19.70;84.90;;;;;;5041793;28;20365;-62
2022/06/09 01:40:09;;;;;;;5.60;1.90;;;19.60;84.70;;;;;;5019310;28;20033;-62
2022/06/09 01:42:42;;;;;;;6.95;2.05;;;19.60;84.80;;;;;;5022860;28;20032;-62
2022/06/09 01:45:42;;;;;;;6.38;1.90;;;19.50;84.80;;;;;;5025719;28;20020;-62
2022/06/09 01:48:09;;;;;;;8.40;2.10;;;19.50;84.80;;;;;;4985084;28;20072;-62
2022/06/09 01:50:40;;;;;;;3.35;1.40;;;19.50;84.70;;;;;;5023873;28;20063;-60
2022/06/09 01:53:10;;;;;;;6.60;1.80;;;19.50;84.70;;;;;;5039571;28;20329;-61
2022/06/09 01:55:38;;;;;;;6.80;1.80;;;19.50;84.70;;;;;;5023128;28;20353;-62
2022/06/09 01:58:04;;;;;;;6.20;1.50;;;19.40;84.70;;;;;;5024749;28;20158;-61
2022/06/09 02:00:29;;;;;;;4.05;1.83;;;19.40;84.70;;;;;;5010362;28;20537;-61
2022/06/09 02:03:02;;;;;;;4.50;1.35;;;19.40;84.70;;;;;;5025541;28;20048;-61
2022/06/09 02:05:29;;;;;;;2.17;1.25;;;19.40;84.60;;;;;;5040064;28;20041;-62
2022/06/09 02:07:57;;;;;;;6.32;1.55;;;19.40;84.60;;;;;;5021305;28;20037;-60
2022/06/09 02:10:34;;;;;;;5.03;1.60;;;19.40;84.60;;;;;;4990628;28;20028;-61
2022/06/09 02:13:04;;;;;;;11.50;1.73;;;19.30;84.60;;;;;;5009453;28;20144;-61
2022/06/09 02:15:41;;;;;;;4.50;2.00;;;19.30;84.50;;;;;;5021431;28;20365;-60
2022/06/09 02:18:15;;;;;;;7.85;1.58;;;19.30;84.50;;;;;;5004728;28;20020;-61
2022/06/09 02:20:42;;;;;;;2.60;1.50;;;19.30;84.50;;;;;;5041479;28;20033;-62
2022/06/09 02:23:12;;;;;;;3.55;1.50;;;19.30;84.50;;;;;;5006026;28;20119;-61
2022/06/09 02:25:38;;;;;;;9.57;1.85;;;19.30;84.40;;;;;;5020754;28;20801;-60
2022/06/09 02:28:05;;;;;;;5.18;1.45;;;19.30;84.30;;;;;;5023381;28;20128;-61
2022/06/09 02:30:30;;;;;;;5.88;1.50;;;19.20;84.20;;;;;;5008312;28;20049;-61
2022/06/09 02:32:56;;;;;;;4.95;1.50;;;19.20;84.20;;;;;;5022339;28;20113;-62
2022/06/09 02:35:22;;;;;;;3.28;1.77;;;19.20;84.20;;;;;;5040870;28;20032;-62
2022/06/09 02:37:47;;;;;;;4.80;1.50;;;19.20;84.10;;;;;;5024324;28;20375;-60
2022/06/09 02:40:13;;;;;;;4.70;1.83;;;19.20;84.20;;;;;;5024201;28;20025;-62
2022/06/09 02:42:38;;;;;;;2.47;1.38;;;19.20;84.10;;;;;;5041411;28;20047;-61
2022/06/09 02:45:04;;;;;;;3.25;1.25;;;19.20;84.00;;;;;;5023480;28;20040;-62
2022/06/09 02:47:30;;;;;;;3.75;1.27;;;19.20;83.90;;;;;;5024434;28;20102;-62
2022/06/09 02:49:55;;;;;;;4.60;1.30;;;19.20;83.80;;;;;;5024554;28;20025;-62
2022/06/09 02:52:21;;;;;;;2.63;1.17;;;19.20;83.90;;;;;;5040817;28;20524;-62
2022/06/09 02:54:46;;;;;;;3.63;1.23;;;19.20;83.80;;;;;;5023104;28;20725;-61
2022/06/09 02:57:12;;;;;;;5.55;1.45;;;19.10;83.80;;;;;;5040346;28;20097;-62
2022/06/09 02:59:37;;;;;;;3.83;1.50;;;19.10;83.80;;;;;;5041874;28;20550;-62
2022/06/09 03:02:03;;;;;;;5.63;1.45;;;19.10;83.80;;;;;;5040492;28;20021;-62
2022/06/09 03:04:28;;;;;;;1.88;1.10;;;19.10;83.90;;;;;;5042631;28;20029;-61
2022/06/09 03:06:54;;;;;;;5.35;1.20;;;19.10;83.90;;;;;;5042911;28;20112;-61
2022/06/09 03:09:20;;;;;;;4.25;1.30;;;19.00;83.90;;;;;;5039134;28;20035;-62
2022/06/09 03:11:45;;;;;;;2.78;1.67;;;19.00;83.90;;;;;;5039331;28;20551;-61
2022/06/09 03:14:11;;;;;;;3.92;1.30;;;19.00;83.90;;;;;;5023287;28;20025;-62
2022/06/09 03:16:37;;;;;;;2.63;1.10;;;19.00;83.90;;;;;;5042107;28;20044;-63
2022/06/09 03:19:02;;;;;;;5.05;1.38;;;18.90;83.90;;;;;;5042371;28;20108;-62
2022/06/09 03:21:28;;;;;;;4.13;1.45;;;19.00;84.00;;;;;;5040328;28;20111;-63
2022/06/09 03:23:53;;;;;;;3.80;1.00;;;18.90;83.90;;;;;;5034168;28;20044;-60
2022/06/09 03:26:19;;;;;;;7.15;2.83;;;19.00;83.90;;;;;;5040577;28;20028;-61
2022/06/09 03:28:44;;;;;;;3.55;2.40;;;18.90;83.90;;;;;;5042133;28;20033;-62
2022/06/09 03:31:10;;;;;;;5.38;2.28;;;18.90;83.70;;;;;;5042498;28;20056;-61
2022/06/09 03:33:35;;;;;;;7.80;1.67;;;19.00;83.70;;;;;;5024434;28;20516;-62
2022/06/09 03:36:02;;;;;;;4.50;1.70;;;19.00;83.60;;;;;;5040935;28;20037;-62
2022/06/09 03:38:28;;;;;;;3.70;1.50;;;18.90;83.60;;;;;;5041053;28;20071;-62
2022/06/09 03:40:53;;;;;;;3.33;1.60;;;18.90;83.60;;;;;;5023949;28;20100;-61
2022/06/09 03:43:19;;;;;;;4.43;1.30;;;18.90;83.60;;;;;;5042947;28;20033;-62
2022/06/09 03:45:44;;;;;;;2.80;1.48;;;18.90;83.70;;;;;;5024831;28;20122;-61
2022/06/09 03:48:10;;;;;;;8.13;1.63;;;18.80;83.70;;;;;;5023678;28;20086;-62
2022/06/09 03:50:35;;;;;;;2.80;1.30;;;18.80;83.70;;;;;;5041582;28;20192;-61
2022/06/09 03:53:01;;;;;;;2.78;1.42;;;18.80;83.70;;;;;;5024583;28;20472;-61
2022/06/09 03:55:27;;;;;;;2.95;1.25;;;18.80;83.60;;;;;;5028958;28;20025;-62
2022/06/09 03:57:52;;;;;;;2.55;1.30;;;18.80;83.70;;;;;;5047033;28;20032;-61
2022/06/09 04:00:20;;;;;;;4.40;1.38;;;18.70;83.60;;;;;;5046622;28;20489;-61
2022/06/09 04:02:46;;;;;;;4.53;1.40;;;18.70;83.60;;;;;;5027209;28;20040;-62
2022/06/09 04:05:13;;;;;;;4.78;1.38;;;18.70;83.60;;;;;;5025318;28;20321;-61
2022/06/09 04:07:39;;;;;;;7.25;1.45;;;18.70;83.80;;;;;;5028282;28;20032;-61
2022/06/09 04:10:06;;;;;;;3.85;1.27;;;18.70;83.80;;;;;;5045134;28;20143;-63
2022/06/09 04:12:31;;;;;;;4.32;1.15;;;18.70;84.10;;;;;;5027470;28;20717;-61
2022/06/09 04:14:57;;;;;;;2.70;1.23;;;18.70;84.20;;;;;;5027007;28;20176;-61
2022/06/09 04:17:22;;;;;;;4.03;1.40;;;18.70;84.00;;;;;;5044394;28;20041;-61
2022/06/09 04:19:48;;;;;;;3.22;1.35;;;18.70;83.90;;;;;;5026100;28;20021;-61
2022/06/09 04:22:13;;;;;;;3.63;0.85;;;18.70;83.90;;;;;;5025024;28;20033;-61
2022/06/09 04:24:39;;;;;;;2.08;1.02;;;18.70;84.00;;;;;;5025627;28;20036;-62
2022/06/09 04:27:04;;;;;;;4.25;1.30;;;18.60;84.00;;;;;;5042870;28;20025;-61
2022/06/09 04:29:30;;;;;;;1.85;1.08;;;18.60;84.10;;;;;;5025208;28;20124;-61
2022/06/09 04:31:55;;;;;;;16.00;2.33;;;18.60;84.10;;;;;;5043065;28;20516;-62
2022/06/09 04:34:21;;;;;;;21.92;2.97;;;18.60;84.10;;;;;;5026864;28;20025;-60
2022/06/09 04:36:46;;;;;;;19.52;3.13;;;18.60;84.20;;;;;;5027943;28;20561;-63
2022/06/09 04:39:12;;;;;;;16.63;3.08;;;18.60;84.20;;;;;;5009332;28;20450;-62
2022/06/09 04:41:37;;;;;;;15.20;2.58;;;18.50;84.20;;;;;;5042741;28;20116;-62
2022/06/09 04:44:03;;;;;;;13.07;2.90;;;18.50;84.20;;;;;;5043591;28;20017;-61
2022/06/09 04:46:29;;;;;;;13.48;2.35;;;18.50;84.20;;;;;;5027169;28;20044;-62
2022/06/09 04:48:55;;;;;;;18.60;2.55;;;18.50;84.20;;;;;;5027092;28;20128;-62
2022/06/09 04:51:20;;;;;;;7.20;2.42;;;18.50;84.20;;;;;;5026265;28;20506;-61
2022/06/09 04:53:47;;;;;;;14.25;2.30;;;18.50;84.20;;;;;;5024859;28;20029;-61
2022/06/09 04:56:14;;;;;;;15.80;2.30;;;18.50;84.20;;;;;;5008475;28;20040;-62
2022/06/09 04:58:40;;;;;;;20.25;2.63;;;18.50;84.20;;;;;;5044470;28;20047;-62
2022/06/09 05:01:06;;;;;;;12.15;2.58;;;18.50;84.20;;;;;;5044064;28;20370;-62
2022/06/09 05:03:32;;;;;;;16.38;2.60;;;18.40;84.20;;;;;;5045140;28;20021;-63
2022/06/09 05:05:58;;;;;;;7.80;1.60;;;18.40;84.20;;;;;;5022547;28;20778;-63
2022/06/09 05:08:23;;;;;;;9.85;2.15;;;18.40;84.40;;;;;;5042309;28;20114;-60
2022/06/09 05:10:49;;;;;;;10.05;2.28;;;18.40;84.40;;;;;;5024455;28;20040;-62
2022/06/09 05:13:14;;;;;;;12.00;2.13;;;18.40;84.50;;;;;;5024682;28;20112;-61
2022/06/09 05:15:58;;;;;;;13.57;2.20;;;18.40;84.50;;;;;;5010131;28;20037;-61
2022/06/09 05:18:26;;;;;;;8.57;1.98;;;18.30;84.50;;;;;;5014896;28;20135;-62
2022/06/09 05:20:52;;;;;;;12.15;2.17;;;18.30;84.60;;;;;;5023614;28;20072;-61
2022/06/09 05:23:18;;;;;;;9.65;2.05;;;18.30;84.60;;;;;;5024191;28;20108;-61
2022/06/09 05:25:44;;;;;;;11.52;2.17;;;18.30;84.70;;;;;;5042506;28;20071;-61
2022/06/09 05:28:10;;;;;;;7.25;2.17;;;18.30;84.60;;;;;;5043995;28;20032;-62
2022/06/09 05:30:36;;;;;;;13.45;2.00;;;18.30;84.60;;;;;;5042456;28;20945;-61
2022/06/09 05:33:02;;;;;;;12.27;1.90;;;18.30;84.60;;;;;;5043719;28;20091;-61
2022/06/09 05:35:28;;;;;;;10.27;2.28;;;18.30;84.60;;;;;;5042362;28;20072;-61
2022/06/09 05:46:06;;;;;;;14.18;1.83;;;18.30;84.60;;;;;;5027412;28;20099;-62
2022/06/09 05:48:32;;;;;;;15.10;1.98;;;18.20;84.40;;;;;;5025263;28;20033;-61
2022/06/09 05:50:57;;;;;;;11.50;1.60;;;18.40;84.50;;;;;;5023457;28;20043;-62
2022/06/09 05:53:23;;;;;;;12.07;2.25;;;18.40;84.40;;;;;;5024974;28;20106;-61
2022/06/09 05:55:49;;;;;;;11.80;2.05;;;18.40;84.40;;;;;;5038470;28;20208;-62
2022/06/09 05:58:15;;;;;;;8.18;2.10;;;18.40;84.40;;;;;;5021463;28;20037;-61
2022/06/09 06:00:45;;;;;;;12.25;1.70;;;18.30;84.30;;;;;;5020302;28;20063;-61
2022/06/09 06:03:12;;;;;;;7.70;1.60;;;18.40;84.50;;;;;;5022408;28;20048;-61
2022/06/09 06:08:22;;;;;;;12.02;2.00;;;18.30;84.40;;;;;;5017668;28;20141;-62
2022/06/09 06:10:48;;;;;;;9.85;1.67;;;18.30;84.40;;;;;;5004414;28;20445;-62
2022/06/09 06:13:14;;;;;;;6.88;1.75;;;18.30;84.60;;;;;;5012531;28;20453;-61
2022/06/09 06:15:39;;;;;;;9.43;1.92;;;18.30;84.60;;;;;;4982021;28;20044;-62
2022/06/09 06:18:05;;;;;;;4.70;1.40;;;18.30;84.60;;;;;;4996446;28;20037;-62
2022/06/09 06:20:31;;;;;;;11.82;2.00;;;18.30;84.70;;;;;;5038515;28;20051;-67
2022/06/09 06:22:56;;;;;;;3.50;1.45;;;18.30;84.70;;;;;;5023201;28;20511;-62
2022/06/09 06:25:23;;;;;;;7.28;1.73;;;18.30;84.70;;;;;;5021000;28;20032;-62
2022/06/09 06:27:49;;;;;;;6.90;1.42;;;18.30;84.60;;;;;;5019070;28;20064;-62
2022/06/09 06:30:14;;;;;;;13.55;2.10;;;18.30;84.60;;;;;;5013290;28;20346;-63
2022/06/09 06:32:40;;;;;;;7.43;1.40;;;18.30;84.70;;;;;;5015826;28;20625;-61
2022/06/09 06:35:06;;;;;;;15.18;2.40;;;18.30;84.60;;;;;;5013941;28;20029;-62
2022/06/09 06:37:32;;;;;;;6.88;1.92;;;18.30;85.00;;;;;;5018370;28;20061;-61
2022/06/09 06:39:57;;;;;;;11.43;1.88;;;18.30;85.00;;;;;;5017488;28;20361;-63
2022/06/09 06:42:23;;;;;;;20.00;2.58;;;18.30;85.00;;;;;;5000472;28;20037;-62
2022/06/09 06:44:49;;;;;;;54.00;5.10;;;18.30;85.40;;;;;;5020355;28;20036;-62
2022/06/09 06:47:15;;;;;;;31.98;4.32;;;18.30;85.30;;;;;;5016637;28;20385;-63
2022/06/09 06:49:40;;;;;;;53.55;4.75;;;18.30;85.40;;;;;;5020605;28;20110;-62
2022/06/09 06:52:06;;;;;;;33.88;4.55;;;18.20;85.40;;;;;;5038358;28;21113;-62
2022/06/09 06:54:31;;;;;;;43.28;5.38;;;18.30;85.40;;;;;;5020009;28;20027;-61
2022/06/09 06:56:57;;;;;;;45.45;4.05;;;18.20;85.30;;;;;;5016021;28;20079;-61
2022/06/09 06:59:22;;;;;;;39.83;4.78;;;18.30;85.60;;;;;;5020178;28;20035;-62
2022/06/09 07:01:48;;;;;;;34.20;4.25;;;18.20;85.60;;;;;;5006682;28;20368;-62
2022/06/09 07:04:15;;;;;;;43.63;3.88;;;18.20;85.60;;;;;;5021989;28;20025;-62
2022/06/09 07:06:40;;;;;;;38.65;4.70;;;18.20;85.50;;;;;;5037134;28;20065;-61
2022/06/09 07:09:06;;;;;;;50.95;4.55;;;18.30;85.50;;;;;;5033308;28;20074;-61
2022/06/09 07:11:31;;;;;;;59.75;5.60;;;18.30;85.30;;;;;;5019882;28;20581;-61
2022/06/09 07:13:57;;;;;;;50.22;5.10;;;18.30;85.30;;;;;;5038369;28;20037;-61
2022/06/09 07:16:22;;;;;;;46.83;5.22;;;18.30;85.50;;;;;;5013588;28;20021;-62
2022/06/09 07:18:48;;;;;;;37.13;5.05;;;18.30;85.60;;;;;;5037534;28;20603;-61
2022/06/09 07:21:13;;;;;;;51.05;5.00;;;18.30;85.40;;;;;;5023351;28;21808;-61
2022/06/09 07:23:39;;;;;;;36.05;4.65;;;18.40;85.40;;;;;;5018160;28;20037;-61
2022/06/09 07:26:05;;;;;;;40.92;5.30;;;18.40;85.20;;;;;;5019728;28;20226;-63
2022/06/09 07:28:31;;;;;;;43.80;5.47;;;18.50;85.20;;;;;;5018933;28;20021;-63
2022/06/09 07:30:58;;;;;;;33.53;4.93;;;18.50;85.20;;;;;;5016523;28;20029;-64
2022/06/09 07:33:25;;;;;;;64.10;6.30;;;18.50;85.20;;;;;;5016709;28;20182;-62
2022/06/09 07:35:53;;;;;;;51.70;5.70;;;18.50;85.20;;;;;;5035651;28;20153;-62
2022/06/09 07:38:18;;;;;;;36.40;5.40;;;18.50;84.90;;;;;;5000908;28;20029;-62
2022/06/09 07:40:44;;;;;;;38.88;5.05;;;18.50;84.70;;;;;;5008184;28;20053;-61
2022/06/09 07:43:11;;;;;;;36.10;4.75;;;18.20;84.10;;;;;;4996675;28;20036;-62
2022/06/09 07:45:37;;;;;;;46.72;5.03;;;18.60;84.00;;;;;;5017327;28;20048;-62
2022/06/09 07:48:02;;;;;;;58.92;6.43;;;18.60;83.80;;;;;;5017180;28;20456;-62
2022/06/09 07:50:28;;;;;;;47.63;6.43;;;18.60;83.80;;;;;;5013315;28;20066;-62
2022/06/09 07:52:53;;;;;;;62.65;7.80;;;18.40;83.20;;;;;;5011563;28;20637;-62
2022/06/09 07:55:22;;;;;;;41.78;6.93;;;18.60;83.10;;;;;;5011591;28;20361;-62
2022/06/09 07:57:47;;;;;;;268.35;29.02;;;18.60;82.90;;;;;;5011674;28;20957;-63
2022/06/09 08:00:14;;;;;;;91.90;9.95;;;18.70;83.60;;;;;;5010028;28;20120;-62
2022/06/09 08:02:39;;;;;;;133.75;12.38;;;18.70;82.70;;;;;;4997427;28;20372;-63
2022/06/09 08:05:06;;;;;;;56.55;6.88;;;18.70;82.10;;;;;;5002222;28;20032;-62
2022/06/09 08:07:31;;;;;;;59.15;7.47;;;18.70;82.20;;;;;;5013915;28;20048;-62
2022/06/09 08:09:57;;;;;;;65.50;6.90;;;18.80;81.80;;;;;;5024585;28;20053;-62
2022/06/09 08:12:22;;;;;;;64.78;6.85;;;18.80;81.60;;;;;;5014060;28;20029;-62
2022/06/09 08:14:48;;;;;;;52.78;6.70;;;18.80;81.40;;;;;;4997432;28;20032;-62
2022/06/09 08:17:13;;;;;;;54.88;6.70;;;18.80;80.80;;;;;;5009638;28;20032;-63
2022/06/09 08:19:40;;;;;;;69.45;7.63;;;18.80;80.60;;;;;;5015105;28;20033;-63
2022/06/09 08:22:05;;;;;;;61.13;7.18;;;18.80;80.60;;;;;;4976508;28;20044;-63
2022/06/09 08:24:34;;;;;;;44.47;6.45;;;18.80;80.50;;;;;;5011533;28;20076;-61
2022/06/09 08:27:00;;;;;;;65.22;7.78;;;18.80;80.40;;;;;;5015772;28;20129;-61
2022/06/09 08:29:26;;;;;;;61.15;7.68;;;18.90;80.70;;;;;;5014704;28;20782;-62
2022/06/09 08:31:52;;;;;;;44.28;6.32;;;18.90;80.40;;;;;;5014904;28;20041;-61
2022/06/09 08:34:17;;;;;;;77.47;8.57;;;18.90;80.00;;;;;;4978877;28;20064;-61
2022/06/09 08:36:44;;;;;;;58.30;6.80;;;18.90;79.80;;;;;;5031837;28;20122;-61
2022/06/09 08:39:09;;;;;;;47.17;5.78;;;18.90;79.50;;;;;;5034050;28;20028;-61
2022/06/09 08:41:55;;;;;;;47.78;6.72;;;19.00;79.50;;;;;;4999115;28;20056;-61
2022/06/09 08:44:28;;;;;;;63.05;7.65;;;18.90;79.40;;;;;;5016694;28;20127;-62
2022/06/09 08:47:18;;;;;;;48.75;5.57;;;18.90;79.70;;;;;;5020336;28;20096;-62
2022/06/09 08:49:54;;;;;;;40.78;5.57;;;18.90;79.60;;;;;;5005859;28;20029;-63
2022/06/09 08:52:33;;;;;;;53.17;5.50;;;19.00;79.50;;;;;;5026965;28;20505;-62
2022/06/09 08:55:15;;;;;;;48.83;6.97;;;19.00;79.50;;;;;;5016809;28;20056;-62
2022/06/09 08:57:41;;;;;;;62.83;7.07;;;19.00;79.50;;;;;;5003376;28;20029;-62
2022/06/09 09:00:09;;;;;;;64.40;7.10;;;19.00;79.30;;;;;;5015478;28;20056;-62
2022/06/09 09:02:38;;;;;;;50.20;6.28;;;19.00;79.30;;;;;;4999593;28;20039;-62
2022/06/09 09:05:18;;;;;;;65.85;7.30;;;19.00;79.20;;;;;;5003611;28;20563;-62
2022/06/09 09:07:48;;;;;;;60.10;8.35;;;19.00;79.30;;;;;;5003409;28;20025;-62
2022/06/09 09:10:22;;;;;;;61.95;7.50;;;19.00;79.10;;;;;;5018872;28;20166;-60
2022/06/09 09:13:09;;;;;;;69.82;7.43;;;19.10;78.70;;;;;;5032027;28;20067;-61
2022/06/09 09:15:39;;;;;;;72.03;9.50;;;19.10;78.70;;;;;;5018955;28;20382;-60
2022/06/09 09:18:21;;;;;;;81.90;8.70;;;19.10;78.70;;;;;;5019009;28;20098;-63
2022/06/09 09:21:12;;;;;;;60.67;7.78;;;19.10;78.60;;;;;;5030951;28;20091;-61
2022/06/09 09:23:50;;;;;;;72.28;8.95;;;19.10;78.50;;;;;;5008782;28;20075;-62
2022/06/09 09:26:22;;;;;;;100.55;10.57;;;19.10;78.30;;;;;;5011479;28;20485;-62
2022/06/09 09:28:56;;;;;;;114.70;10.98;;;19.10;78.30;;;;;;5013429;28;20025;-61
2022/06/09 09:31:25;;;;;;;98.30;10.00;;;19.10;78.60;;;;;;5027228;28;20029;-62
2022/06/09 09:33:51;;;;;;;72.60;9.57;;;19.10;78.70;;;;;;5027441;28;20033;-62
2022/06/09 09:36:23;;;;;;;67.97;8.63;;;19.20;78.80;;;;;;5027773;28;20048;-61
2022/06/09 09:39:10;;;;;;;66.07;7.88;;;19.20;79.00;;;;;;5031118;28;20029;-61
2022/06/09 09:41:37;;;;;;;56.92;7.05;;;19.20;78.80;;;;;;5014201;28;20032;-61
2022/06/09 09:44:20;;;;;;;70.68;9.93;;;19.20;78.50;;;;;;5014363;28;20035;-63
2022/06/09 09:46:51;;;;;;;72.20;9.38;;;19.30;77.60;;;;;;5010173;28;20049;-62
2022/06/09 09:49:23;;;;;;;74.15;8.85;;;19.30;77.50;;;;;;4998282;28;20097;-62
2022/06/09 09:51:49;;;;;;;70.38;8.85;;;19.30;77.50;;;;;;5016772;28;20051;-61
2022/06/09 09:54:26;;;;;;;68.43;8.65;;;19.40;77.10;;;;;;5011924;28;21946;-61
2022/06/09 09:57:03;;;;;;;73.13;9.00;;;19.40;77.10;;;;;;5028198;28;20021;-61
2022/06/09 09:59:28;;;;;;;75.50;9.23;;;19.40;76.50;;;;;;5004062;28;20091;-61
2022/06/09 10:10:26;;;;;;;63.78;9.05;;;19.60;75.70;;;;;;5020195;28;20032;-62
2022/06/09 10:12:51;;;;;;;75.55;9.65;;;19.60;75.40;;;;;;4997700;28;20040;-62
2022/06/09 10:15:18;;;;;;;66.90;9.18;;;19.70;75.20;;;;;;4979438;28;20033;-62
2022/06/09 10:17:58;;;;;;;74.40;9.63;;;19.70;75.10;;;;;;4998504;28;20032;-62
2022/06/09 10:20:38;;;;;;;120.32;15.15;;;19.70;75.20;;;;;;5014043;28;20060;-61
2022/06/09 10:23:06;;;;;;;55.90;8.55;;;19.80;75.30;;;;;;4994925;28;20383;-61
2022/06/09 10:25:36;;;;;;;51.70;6.95;;;19.80;75.00;;;;;;5028360;28;20032;-62
2022/06/09 10:28:43;;;;;;;65.10;10.00;;;19.80;75.20;;;;;;5007818;28;20040;-62
2022/06/09 10:31:38;;;;;;;66.82;8.38;;;19.80;74.20;;;;;;5032808;28;20155;-62
2022/06/09 10:34:25;;;;;;;68.82;8.45;;;19.80;74.30;;;;;;4998510;28;20045;-62
2022/06/09 10:37:13;;;;;;;43.53;5.82;;;19.80;73.90;;;;;;5034799;28;20503;-62
2022/06/09 10:39:46;;;;;;;59.42;8.43;;;19.80;73.90;;;;;;5032121;28;20027;-62
2022/06/09 10:42:23;;;;;;;67.15;8.00;;;19.90;73.60;;;;;;5012038;28;20905;-62
2022/06/09 10:45:08;;;;;;;78.50;8.50;;;19.80;73.40;;;;;;5009281;28;20681;-61
2022/06/09 10:56:18;;;;;;;69.57;9.55;;;20.00;73.10;;;;;;5009234;28;20540;-62
2022/06/09 10:59:10;;;;;;;75.60;9.63;;;20.00;72.70;;;;;;5015769;28;20512;-61
2022/06/09 11:01:36;;;;;;;42.85;6.38;;;20.00;72.70;;;;;;5008285;28;20128;-61
2022/06/09 11:04:03;;;;;;;90.47;11.45;;;20.00;72.20;;;;;;5006110;28;20035;-62
2022/06/09 11:07:00;;;;;;;65.80;8.90;;;20.00;72.10;;;;;;4999486;28;20040;-61
2022/06/09 11:09:52;;;;;;;89.25;11.43;;;20.10;71.80;;;;;;5016210;28;20029;-61
2022/06/09 11:12:52;;;;;;;61.58;6.80;;;20.00;72.00;;;;;;4996576;28;20044;-61
2022/06/09 11:15:34;;;;;;;61.15;7.85;;;20.20;72.20;;;;;;5029771;28;20053;-62
2022/06/09 11:18:25;;;;;;;80.03;8.98;;;20.10;72.30;;;;;;4995879;28;20044;-61
2022/06/09 11:21:03;;;;;;;79.63;10.70;;;20.10;72.50;;;;;;4995207;28;20060;-62
2022/06/09 11:24:11;;;;;;;93.53;10.55;;;20.20;72.40;;;;;;5010937;28;20024;-61
2022/06/09 11:26:48;;;;;;;98.07;10.73;;;20.30;72.40;;;;;;5030223;28;20032;-61
2022/06/09 11:29:28;;;;;;;89.03;9.35;;;20.40;72.10;;;;;;5016046;28;20678;-61
2022/06/09 11:32:09;;;;;;;75.13;9.02;;;20.40;71.90;;;;;;5032573;28;20136;-62
2022/06/09 11:34:54;;;;;;;79.00;9.50;;;20.40;71.80;;;;;;5010552;28;20064;-61
2022/06/09 11:37:39;;;;;;;82.50;11.45;;;20.40;72.00;;;;;;5011603;28;20055;-61
2022/06/09 11:40:07;;;;;;;24.40;4.88;;;20.40;72.00;;;;;;5012993;28;20032;-62
2022/06/09 11:42:36;;;;;;;31.65;4.25;;;20.40;71.80;;;;;;4994189;28;20582;-62
2022/06/09 11:45:13;;;;;;;25.85;4.15;;;20.40;71.60;;;;;;5006742;28;20029;-61
2022/06/09 11:47:38;;;;;;;28.48;4.72;;;20.50;71.50;;;;;;5010279;28;20087;-63
2022/06/09 11:50:05;;;;;;;52.33;7.22;;;20.50;71.30;;;;;;4999958;28;20037;-61
2022/06/09 11:52:42;;;;;;;68.38;7.82;;;20.60;71.20;;;;;;5015497;28;20425;-63
2022/06/09 11:55:57;;;;;;;42.40;6.47;;;20.60;71.80;;;;;;5011667;28;20021;-63
2022/06/09 11:58:33;;;;;;;48.30;6.53;;;20.60;71.40;;;;;;5013579;28;20037;-61
2022/06/09 12:01:17;;;;;;;40.22;5.80;;;20.70;71.40;;;;;;5016331;28;20142;-61
2022/06/09 12:03:56;;;;;;;44.70;7.75;;;20.70;71.20;;;;;;5029943;28;20087;-61
2022/06/09 12:07:00;;;;;;;41.35;6.70;;;20.70;71.20;;;;;;5009687;28;20120;-62
2022/06/09 12:09:42;;;;;;;66.13;7.85;;;20.80;71.10;;;;;;5024237;28;20040;-61
2022/06/09 12:12:32;;;;;;;64.53;9.32;;;20.90;71.00;;;;;;5001005;28;20051;-61
2022/06/09 12:15:15;;;;;;;62.58;8.38;;;21.00;70.60;;;;;;5015393;28;20122;-62
2022/06/09 12:17:56;;;;;;;59.28;8.10;;;21.00;71.00;;;;;;5018675;28;20107;-61
2022/06/09 12:20:37;;;;;;;82.15;9.40;;;21.00;70.40;;;;;;5023191;28;20025;-61
2022/06/09 12:23:36;;;;;;;74.13;8.82;;;21.10;70.60;;;;;;5031424;28;20542;-62
2022/06/09 12:26:16;;;;;;;67.22;8.13;;;21.10;70.40;;;;;;5000179;28;20040;-61
2022/06/09 12:28:57;;;;;;;77.53;10.65;;;21.20;70.40;;;;;;5035959;28;20044;-61
2022/06/09 12:31:32;;;;;;;78.53;8.32;;;21.30;69.90;;;;;;5035587;28;20033;-62
2022/06/09 12:34:19;;;;;;;70.78;8.02;;;21.40;69.50;;;;;;5012276;28;20021;-62
2022/06/09 12:36:52;;;;;;;64.97;10.07;;;21.40;69.50;;;;;;5017354;28;20065;-62
2022/06/09 12:39:33;;;;;;;79.00;9.07;;;21.50;68.90;;;;;;5019177;28;20633;-61
2022/06/09 12:42:07;;;;;;;58.35;7.25;;;21.50;68.70;;;;;;5016997;28;20416;-60
2022/06/09 12:44:42;;;;;;;54.83;6.70;;;21.60;68.40;;;;;;5020403;28;20025;-61
2022/06/09 12:47:13;;;;;;;75.68;8.80;;;21.70;68.20;;;;;;5014810;28;20097;-62
2022/06/09 12:49:41;;;;;;;45.90;6.00;;;21.70;67.60;;;;;;5012331;28;20025;-63
2022/06/09 12:52:37;;;;;;;50.83;7.88;;;21.70;67.90;;;;;;5016256;28;20494;-64
2022/06/09 12:55:20;;;;;;;57.55;7.78;;;21.70;68.10;;;;;;5000208;28;20043;-62
2022/06/09 12:57:57;;;;;;;51.72;6.82;;;21.70;68.40;;;;;;5017077;28;20143;-61
2022/06/09 13:00:48;;;;;;;44.75;5.63;;;21.60;67.50;;;;;;5018841;28;20164;-62
2022/06/09 13:03:20;;;;;;;43.50;5.53;;;21.50;67.20;;;;;;4997358;28;20117;-61
2022/06/09 13:05:46;;;;;;;46.88;6.32;;;21.50;67.40;;;;;;5008430;28;20100;-61
2022/06/09 13:08:25;;;;;;;51.35;5.70;;;21.40;66.70;;;;;;5013774;28;20083;-62
2022/06/09 13:11:04;;;;;;;44.80;5.43;;;21.40;66.80;;;;;;5011051;28;20037;-60
2022/06/09 13:13:40;;;;;;;46.03;5.65;;;21.30;66.80;;;;;;5006954;28;20070;-67
2022/06/09 13:16:15;;;;;;;30.05;4.35;;;21.20;66.80;;;;;;4997803;28;20052;-64
2022/06/09 13:18:43;;;;;;;39.40;5.37;;;21.20;66.80;;;;;;5012279;28;20033;-64
2022/06/09 13:21:20;;;;;;;45.63;6.32;;;21.20;66.70;;;;;;4992936;28;20057;-64
2022/06/09 13:23:48;;;;;;;24.17;4.35;;;21.20;66.90;;;;;;4986905;28;20052;-61
2022/06/09 13:26:24;;;;;;;41.40;4.57;;;21.20;67.00;;;;;;4998046;28;20028;-61